sensor_id;sensor_type;location;lat;lon;timestamp;P1;durP1;ratioP1;P2;durP2;ratioP2
40691;SDS011;26377;53.344;14.886;2022-10-14T00:01:15;34.03;;;23.77;;
40691;SDS011;26377;53.344;14.886;2022-10-14T00:03:47;39.58;;;24.98;;
40691;SDS011;26377;53.344;14.886;2022-10-14T00:06:18;40.55;;;23.30;;
40691;SDS011;26377;53.344;14.886;2022-10-14T00:08:50;30.35;;;20.35;;
40691;SDS011;26377;53.344;14.886;2022-10-14T00:11:26;31.52;;;21.57;;
40691;SDS011;26377;53.344;14.886;2022-10-14T00:13:56;37.40;;;23.62;;
40691;SDS011;26377;53.344;14.886;2022-10-14T00:16:28;45.10;;;27.37;;
40691;SDS011;26377;53.344;14.886;2022-10-14T00:18:58;48.02;;;28.87;;
40691;SDS011;26377;53.344;14.886;2022-10-14T00:21:26;40.98;;;27.22;;
40691;SDS011;26377;53.344;14.886;2022-10-14T00:23:55;39.20;;;25.27;;
40691;SDS011;26377;53.344;14.886;2022-10-14T00:26:24;39.60;;;24.12;;
40691;SDS011;26377;53.344;14.886;2022-10-14T00:28:58;35.50;;;24.57;;
40691;SDS011;26377;53.344;14.886;2022-10-14T00:31:30;35.35;;;23.62;;
40691;SDS011;26377;53.344;14.886;2022-10-14T00:33:59;35.68;;;23.27;;
40691;SDS011;26377;53.344;14.886;2022-10-14T00:36:27;33.92;;;22.48;;
40691;SDS011;26377;53.344;14.886;2022-10-14T00:38:56;34.20;;;23.42;;
40691;SDS011;26377;53.344;14.886;2022-10-14T00:41:28;41.05;;;25.40;;
40691;SDS011;26377;53.344;14.886;2022-10-14T00:43:59;39.45;;;25.65;;
40691;SDS011;26377;53.344;14.886;2022-10-14T00:46:48;38.80;;;25.50;;
40691;SDS011;26377;53.344;14.886;2022-10-14T00:49:35;42.00;;;26.75;;
40691;SDS011;26377;53.344;14.886;2022-10-14T00:52:07;40.00;;;24.23;;
40691;SDS011;26377;53.344;14.886;2022-10-14T00:54:46;41.37;;;26.05;;
40691;SDS011;26377;53.344;14.886;2022-10-14T00:57:12;43.75;;;24.82;;
40691;SDS011;26377;53.344;14.886;2022-10-14T00:59:43;44.58;;;25.45;;
40691;SDS011;26377;53.344;14.886;2022-10-14T01:02:11;37.10;;;23.87;;
40691;SDS011;26377;53.344;14.886;2022-10-14T01:04:39;39.20;;;24.00;;
40691;SDS011;26377;53.344;14.886;2022-10-14T01:09:56;36.93;;;23.10;;
40691;SDS011;26377;53.344;14.886;2022-10-14T01:26:42;36.77;;;22.52;;
40691;SDS011;26377;53.344;14.886;2022-10-14T01:32:35;36.48;;;21.10;;
40691;SDS011;26377;53.344;14.886;2022-10-14T01:35:07;31.35;;;22.17;;
40691;SDS011;26377;53.344;14.886;2022-10-14T01:38:00;29.55;;;21.37;;
40691;SDS011;26377;53.344;14.886;2022-10-14T01:45:39;37.00;;;23.15;;
40691;SDS011;26377;53.344;14.886;2022-10-14T01:48:11;36.73;;;23.47;;
40691;SDS011;26377;53.344;14.886;2022-10-14T01:53:15;38.38;;;23.57;;
40691;SDS011;26377;53.344;14.886;2022-10-14T01:55:46;38.85;;;24.15;;
40691;SDS011;26377;53.344;14.886;2022-10-14T01:58:16;40.00;;;24.10;;
40691;SDS011;26377;53.344;14.886;2022-10-14T02:00:46;33.60;;;22.20;;
40691;SDS011;26377;53.344;14.886;2022-10-14T02:03:15;32.95;;;21.33;;
40691;SDS011;26377;53.344;14.886;2022-10-14T02:06:03;35.80;;;24.40;;
40691;SDS011;26377;53.344;14.886;2022-10-14T02:11:13;31.95;;;21.97;;
40691;SDS011;26377;53.344;14.886;2022-10-14T02:13:51;39.63;;;23.27;;
40691;SDS011;26377;53.344;14.886;2022-10-14T02:19:32;34.70;;;23.02;;
40691;SDS011;26377;53.344;14.886;2022-10-14T02:25:08;36.73;;;23.87;;
40691;SDS011;26377;53.344;14.886;2022-10-14T02:27:42;33.53;;;22.98;;
40691;SDS011;26377;53.344;14.886;2022-10-14T02:30:12;34.70;;;22.62;;
40691;SDS011;26377;53.344;14.886;2022-10-14T02:32:41;30.72;;;22.95;;
40691;SDS011;26377;53.344;14.886;2022-10-14T02:35:12;38.20;;;22.87;;
40691;SDS011;26377;53.344;14.886;2022-10-14T02:37:45;34.92;;;23.05;;
40691;SDS011;26377;53.344;14.886;2022-10-14T02:40:17;33.63;;;22.15;;
40691;SDS011;26377;53.344;14.886;2022-10-14T02:42:47;42.88;;;33.13;;
40691;SDS011;26377;53.344;14.886;2022-10-14T02:45:17;42.70;;;31.50;;
40691;SDS011;26377;53.344;14.886;2022-10-14T02:47:46;45.28;;;30.08;;
40691;SDS011;26377;53.344;14.886;2022-10-14T02:50:14;49.85;;;34.20;;
40691;SDS011;26377;53.344;14.886;2022-10-14T02:52:43;42.80;;;32.25;;
40691;SDS011;26377;53.344;14.886;2022-10-14T02:55:15;48.68;;;29.70;;
40691;SDS011;26377;53.344;14.886;2022-10-14T02:57:43;41.10;;;26.75;;
40691;SDS011;26377;53.344;14.886;2022-10-14T03:00:12;40.78;;;26.68;;
40691;SDS011;26377;53.344;14.886;2022-10-14T03:02:41;38.40;;;25.02;;
40691;SDS011;26377;53.344;14.886;2022-10-14T03:05:08;46.77;;;26.50;;
40691;SDS011;26377;53.344;14.886;2022-10-14T03:07:38;39.45;;;25.27;;
40691;SDS011;26377;53.344;14.886;2022-10-14T03:10:09;35.40;;;24.43;;
40691;SDS011;26377;53.344;14.886;2022-10-14T03:12:36;33.25;;;25.02;;
40691;SDS011;26377;53.344;14.886;2022-10-14T03:15:05;36.35;;;26.33;;
40691;SDS011;26377;53.344;14.886;2022-10-14T03:17:36;43.83;;;28.23;;
40691;SDS011;26377;53.344;14.886;2022-10-14T03:20:04;38.98;;;26.45;;
40691;SDS011;26377;53.344;14.886;2022-10-14T03:22:34;38.80;;;26.83;;
40691;SDS011;26377;53.344;14.886;2022-10-14T03:25:04;33.42;;;24.72;;
40691;SDS011;26377;53.344;14.886;2022-10-14T03:27:35;33.67;;;23.12;;
40691;SDS011;26377;53.344;14.886;2022-10-14T03:30:04;38.85;;;25.55;;
40691;SDS011;26377;53.344;14.886;2022-10-14T03:32:35;37.10;;;25.30;;
40691;SDS011;26377;53.344;14.886;2022-10-14T03:35:21;38.13;;;25.00;;
40691;SDS011;26377;53.344;14.886;2022-10-14T03:37:49;34.92;;;24.90;;
40691;SDS011;26377;53.344;14.886;2022-10-14T03:40:20;42.27;;;24.17;;
40691;SDS011;26377;53.344;14.886;2022-10-14T03:42:49;34.33;;;24.37;;
40691;SDS011;26377;53.344;14.886;2022-10-14T03:45:17;34.48;;;24.05;;
40691;SDS011;26377;53.344;14.886;2022-10-14T03:47:45;30.55;;;23.10;;
40691;SDS011;26377;53.344;14.886;2022-10-14T03:50:13;34.70;;;24.00;;
40691;SDS011;26377;53.344;14.886;2022-10-14T03:52:42;32.75;;;23.80;;
40691;SDS011;26377;53.344;14.886;2022-10-14T03:55:10;33.67;;;23.85;;
40691;SDS011;26377;53.344;14.886;2022-10-14T03:57:42;32.75;;;22.60;;
40691;SDS011;26377;53.344;14.886;2022-10-14T04:00:10;48.87;;;24.52;;
40691;SDS011;26377;53.344;14.886;2022-10-14T04:02:42;56.98;;;23.30;;
40691;SDS011;26377;53.344;14.886;2022-10-14T04:05:13;43.33;;;21.93;;
40691;SDS011;26377;53.344;14.886;2022-10-14T04:07:41;102.92;;;24.15;;
40691;SDS011;26377;53.344;14.886;2022-10-14T04:10:09;118.42;;;23.70;;
40691;SDS011;26377;53.344;14.886;2022-10-14T04:12:39;158.68;;;23.87;;
40691;SDS011;26377;53.344;14.886;2022-10-14T04:15:10;143.07;;;23.40;;
40691;SDS011;26377;53.344;14.886;2022-10-14T04:17:39;57.90;;;20.23;;
40691;SDS011;26377;53.344;14.886;2022-10-14T04:20:09;82.72;;;21.17;;
40691;SDS011;26377;53.344;14.886;2022-10-14T04:22:39;49.03;;;21.82;;
40691;SDS011;26377;53.344;14.886;2022-10-14T04:25:08;74.12;;;20.20;;
40691;SDS011;26377;53.344;14.886;2022-10-14T04:27:38;53.23;;;21.87;;
40691;SDS011;26377;53.344;14.886;2022-10-14T04:30:08;34.58;;;21.30;;
40691;SDS011;26377;53.344;14.886;2022-10-14T04:32:43;34.58;;;20.60;;
40691;SDS011;26377;53.344;14.886;2022-10-14T04:35:12;44.05;;;20.72;;
40691;SDS011;26377;53.344;14.886;2022-10-14T04:37:44;26.68;;;21.07;;
40691;SDS011;26377;53.344;14.886;2022-10-14T04:40:13;30.57;;;20.65;;
40691;SDS011;26377;53.344;14.886;2022-10-14T04:42:43;34.75;;;22.75;;
40691;SDS011;26377;53.344;14.886;2022-10-14T04:45:12;29.02;;;21.70;;
40691;SDS011;26377;53.344;14.886;2022-10-14T04:47:45;31.05;;;22.48;;
40691;SDS011;26377;53.344;14.886;2022-10-14T04:50:13;28.83;;;22.32;;
40691;SDS011;26377;53.344;14.886;2022-10-14T04:52:41;34.70;;;21.45;;
40691;SDS011;26377;53.344;14.886;2022-10-14T04:55:11;32.05;;;19.65;;
40691;SDS011;26377;53.344;14.886;2022-10-14T04:57:40;42.10;;;18.73;;
40691;SDS011;26377;53.344;14.886;2022-10-14T05:00:12;74.60;;;19.40;;
40691;SDS011;26377;53.344;14.886;2022-10-14T05:02:45;61.53;;;20.27;;
40691;SDS011;26377;53.344;14.886;2022-10-14T05:05:13;46.18;;;19.55;;
40691;SDS011;26377;53.344;14.886;2022-10-14T05:07:41;74.42;;;20.43;;
40691;SDS011;26377;53.344;14.886;2022-10-14T05:10:16;25.90;;;18.37;;
40691;SDS011;26377;53.344;14.886;2022-10-14T05:12:43;33.55;;;19.87;;
40691;SDS011;26377;53.344;14.886;2022-10-14T05:15:11;24.60;;;19.65;;
40691;SDS011;26377;53.344;14.886;2022-10-14T05:20:12;92.88;;;23.45;;
40691;SDS011;26377;53.344;14.886;2022-10-14T05:22:42;164.97;;;24.92;;
40691;SDS011;26377;53.344;14.886;2022-10-14T05:25:11;91.55;;;23.38;;
40691;SDS011;26377;53.344;14.886;2022-10-14T05:27:40;87.65;;;23.02;;
40691;SDS011;26377;53.344;14.886;2022-10-14T05:30:08;107.72;;;23.15;;
40691;SDS011;26377;53.344;14.886;2022-10-14T05:32:39;61.18;;;20.35;;
40691;SDS011;26377;53.344;14.886;2022-10-14T05:35:07;69.80;;;21.52;;
40691;SDS011;26377;53.344;14.886;2022-10-14T05:40:06;69.35;;;19.65;;
40691;SDS011;26377;53.344;14.886;2022-10-14T05:42:36;76.25;;;20.95;;
40691;SDS011;26377;53.344;14.886;2022-10-14T05:45:04;103.70;;;22.30;;
40691;SDS011;26377;53.344;14.886;2022-10-14T05:47:33;67.15;;;21.42;;
40691;SDS011;26377;53.344;14.886;2022-10-14T05:50:05;50.88;;;20.80;;
40691;SDS011;26377;53.344;14.886;2022-10-14T05:52:34;80.95;;;22.27;;
40691;SDS011;26377;53.344;14.886;2022-10-14T05:55:04;101.20;;;22.75;;
40691;SDS011;26377;53.344;14.886;2022-10-14T05:57:38;70.28;;;20.65;;
40691;SDS011;26377;53.344;14.886;2022-10-14T06:00:09;33.98;;;20.20;;
40691;SDS011;26377;53.344;14.886;2022-10-14T06:02:41;24.05;;;19.75;;
40691;SDS011;26377;53.344;14.886;2022-10-14T06:05:10;32.75;;;21.40;;
40691;SDS011;26377;53.344;14.886;2022-10-14T06:07:38;48.83;;;23.32;;
40691;SDS011;26377;53.344;14.886;2022-10-14T06:10:05;95.60;;;22.60;;
40691;SDS011;26377;53.344;14.886;2022-10-14T06:12:34;80.70;;;24.72;;
40691;SDS011;26377;53.344;14.886;2022-10-14T06:15:02;98.80;;;26.55;;
40691;SDS011;26377;53.344;14.886;2022-10-14T06:17:31;103.78;;;26.00;;
40691;SDS011;26377;53.344;14.886;2022-10-14T06:20:00;147.17;;;26.27;;
40691;SDS011;26377;53.344;14.886;2022-10-14T06:22:28;183.15;;;23.87;;
40691;SDS011;26377;53.344;14.886;2022-10-14T06:24:56;123.07;;;22.30;;
40691;SDS011;26377;53.344;14.886;2022-10-14T06:27:23;147.40;;;22.82;;
40691;SDS011;26377;53.344;14.886;2022-10-14T06:29:51;116.90;;;23.18;;
40691;SDS011;26377;53.344;14.886;2022-10-14T06:32:19;154.95;;;22.58;;
40691;SDS011;26377;53.344;14.886;2022-10-14T06:34:46;153.20;;;27.65;;
40691;SDS011;26377;53.344;14.886;2022-10-14T06:37:13;136.55;;;21.82;;
40691;SDS011;26377;53.344;14.886;2022-10-14T06:39:41;112.90;;;20.70;;
40691;SDS011;26377;53.344;14.886;2022-10-14T06:42:10;99.47;;;20.57;;
40691;SDS011;26377;53.344;14.886;2022-10-14T06:44:39;100.45;;;20.57;;
40691;SDS011;26377;53.344;14.886;2022-10-14T06:47:06;141.10;;;24.07;;
40691;SDS011;26377;53.344;14.886;2022-10-14T06:49:34;70.45;;;18.85;;
40691;SDS011;26377;53.344;14.886;2022-10-14T06:52:04;70.33;;;20.13;;
40691;SDS011;26377;53.344;14.886;2022-10-14T06:54:31;67.42;;;18.25;;
40691;SDS011;26377;53.344;14.886;2022-10-14T06:57:01;51.37;;;18.57;;
40691;SDS011;26377;53.344;14.886;2022-10-14T06:59:28;85.30;;;20.12;;
40691;SDS011;26377;53.344;14.886;2022-10-14T07:01:55;51.33;;;18.87;;
40691;SDS011;26377;53.344;14.886;2022-10-14T07:04:22;41.80;;;18.70;;
40691;SDS011;26377;53.344;14.886;2022-10-14T07:06:50;24.45;;;18.67;;
40691;SDS011;26377;53.344;14.886;2022-10-14T07:09:17;25.55;;;19.27;;
40691;SDS011;26377;53.344;14.886;2022-10-14T07:11:45;26.05;;;20.08;;
40691;SDS011;26377;53.344;14.886;2022-10-14T07:14:12;23.57;;;18.77;;
40691;SDS011;26377;53.344;14.886;2022-10-14T07:16:41;25.17;;;18.92;;
40691;SDS011;26377;53.344;14.886;2022-10-14T07:19:11;25.80;;;19.20;;
40691;SDS011;26377;53.344;14.886;2022-10-14T07:21:38;26.60;;;19.10;;
40691;SDS011;26377;53.344;14.886;2022-10-14T07:24:08;25.68;;;19.98;;
40691;SDS011;26377;53.344;14.886;2022-10-14T07:26:35;22.20;;;18.07;;
40691;SDS011;26377;53.344;14.886;2022-10-14T07:29:03;25.40;;;20.08;;
40691;SDS011;26377;53.344;14.886;2022-10-14T07:31:31;25.80;;;18.48;;
40691;SDS011;26377;53.344;14.886;2022-10-14T07:33:59;26.55;;;19.60;;
40691;SDS011;26377;53.344;14.886;2022-10-14T07:36:28;25.17;;;19.25;;
40691;SDS011;26377;53.344;14.886;2022-10-14T07:38:56;20.48;;;17.57;;
40691;SDS011;26377;53.344;14.886;2022-10-14T07:41:23;22.00;;;17.75;;
40691;SDS011;26377;53.344;14.886;2022-10-14T07:43:56;22.07;;;18.12;;
40691;SDS011;26377;53.344;14.886;2022-10-14T07:46:30;19.92;;;16.57;;
40691;SDS011;26377;53.344;14.886;2022-10-14T07:49:01;25.17;;;17.95;;
40691;SDS011;26377;53.344;14.886;2022-10-14T07:51:35;21.85;;;17.48;;
40691;SDS011;26377;53.344;14.886;2022-10-14T07:54:04;19.30;;;15.83;;
40691;SDS011;26377;53.344;14.886;2022-10-14T07:56:37;24.10;;;17.73;;
40691;SDS011;26377;53.344;14.886;2022-10-14T07:59:07;20.02;;;16.90;;
40691;SDS011;26377;53.344;14.886;2022-10-14T08:01:36;22.60;;;16.32;;
40691;SDS011;26377;53.344;14.886;2022-10-14T08:04:04;20.02;;;15.55;;
40691;SDS011;26377;53.344;14.886;2022-10-14T08:06:33;20.70;;;17.45;;
40691;SDS011;26377;53.344;14.886;2022-10-14T08:09:03;19.00;;;15.90;;
40691;SDS011;26377;53.344;14.886;2022-10-14T08:11:33;23.50;;;16.75;;
40691;SDS011;26377;53.344;14.886;2022-10-14T08:14:03;21.42;;;16.67;;
40691;SDS011;26377;53.344;14.886;2022-10-14T08:16:31;26.07;;;17.42;;
40691;SDS011;26377;53.344;14.886;2022-10-14T08:19:02;20.40;;;16.37;;
40691;SDS011;26377;53.344;14.886;2022-10-14T08:21:36;23.50;;;17.35;;
40691;SDS011;26377;53.344;14.886;2022-10-14T08:24:04;22.93;;;17.52;;
40691;SDS011;26377;53.344;14.886;2022-10-14T08:26:32;20.80;;;16.52;;
40691;SDS011;26377;53.344;14.886;2022-10-14T08:29:08;24.18;;;16.93;;
40691;SDS011;26377;53.344;14.886;2022-10-14T08:31:40;23.47;;;17.23;;
40691;SDS011;26377;53.344;14.886;2022-10-14T08:34:09;24.60;;;16.70;;
40691;SDS011;26377;53.344;14.886;2022-10-14T08:36:36;21.37;;;17.07;;
40691;SDS011;26377;53.344;14.886;2022-10-14T08:39:03;20.77;;;16.80;;
40691;SDS011;26377;53.344;14.886;2022-10-14T08:44:56;20.62;;;16.30;;
40691;SDS011;26377;53.344;14.886;2022-10-14T08:47:40;19.87;;;16.85;;
40691;SDS011;26377;53.344;14.886;2022-10-14T08:55:45;22.07;;;17.10;;
40691;SDS011;26377;53.344;14.886;2022-10-14T08:58:27;21.33;;;16.37;;
40691;SDS011;26377;53.344;14.886;2022-10-14T09:01:28;18.37;;;15.98;;
40691;SDS011;26377;53.344;14.886;2022-10-14T09:04:02;20.43;;;16.02;;
40691;SDS011;26377;53.344;14.886;2022-10-14T09:06:33;27.33;;;16.47;;
40691;SDS011;26377;53.344;14.886;2022-10-14T09:09:07;20.00;;;16.85;;
40691;SDS011;26377;53.344;14.886;2022-10-14T09:12:05;24.43;;;16.62;;
40691;SDS011;26377;53.344;14.886;2022-10-14T09:14:41;22.60;;;16.60;;
40691;SDS011;26377;53.344;14.886;2022-10-14T09:17:19;22.55;;;17.12;;
40691;SDS011;26377;53.344;14.886;2022-10-14T09:22:34;20.45;;;16.62;;
40691;SDS011;26377;53.344;14.886;2022-10-14T09:25:07;23.25;;;15.32;;
40691;SDS011;26377;53.344;14.886;2022-10-14T09:27:36;21.27;;;15.35;;
40691;SDS011;26377;53.344;14.886;2022-10-14T09:30:04;20.52;;;14.90;;
40691;SDS011;26377;53.344;14.886;2022-10-14T09:32:41;23.67;;;15.38;;
40691;SDS011;26377;53.344;14.886;2022-10-14T09:38:00;22.30;;;16.00;;
40691;SDS011;26377;53.344;14.886;2022-10-14T09:40:35;20.23;;;14.33;;
40691;SDS011;26377;53.344;14.886;2022-10-14T09:45:56;21.80;;;13.68;;
40691;SDS011;26377;53.344;14.886;2022-10-14T09:48:33;19.48;;;14.10;;
40691;SDS011;26377;53.344;14.886;2022-10-14T09:53:58;18.25;;;14.60;;
40691;SDS011;26377;53.344;14.886;2022-10-14T09:56:33;18.92;;;13.38;;
40691;SDS011;26377;53.344;14.886;2022-10-14T09:59:03;19.00;;;14.53;;
40691;SDS011;26377;53.344;14.886;2022-10-14T10:01:38;19.45;;;13.72;;
40691;SDS011;26377;53.344;14.886;2022-10-14T10:07:09;18.25;;;12.50;;
40691;SDS011;26377;53.344;14.886;2022-10-14T10:09:53;18.00;;;12.50;;
40691;SDS011;26377;53.344;14.886;2022-10-14T10:12:33;19.70;;;13.83;;
40691;SDS011;26377;53.344;14.886;2022-10-14T10:15:02;16.77;;;13.32;;
40691;SDS011;26377;53.344;14.886;2022-10-14T10:17:34;18.42;;;13.50;;
40691;SDS011;26377;53.344;14.886;2022-10-14T10:20:16;22.40;;;13.55;;
40691;SDS011;26377;53.344;14.886;2022-10-14T10:25:52;18.07;;;12.98;;
40691;SDS011;26377;53.344;14.886;2022-10-14T10:28:25;17.73;;;13.20;;
40691;SDS011;26377;53.344;14.886;2022-10-14T10:31:05;20.25;;;12.82;;
40691;SDS011;26377;53.344;14.886;2022-10-14T10:33:43;17.57;;;12.95;;
40691;SDS011;26377;53.344;14.886;2022-10-14T10:36:52;16.62;;;12.05;;
40691;SDS011;26377;53.344;14.886;2022-10-14T10:47:50;18.00;;;11.75;;
40691;SDS011;26377;53.344;14.886;2022-10-14T10:50:24;17.12;;;12.18;;
40691;SDS011;26377;53.344;14.886;2022-10-14T11:01:34;18.82;;;12.30;;
40691;SDS011;26377;53.344;14.886;2022-10-14T11:10:22;18.07;;;11.43;;
40691;SDS011;26377;53.344;14.886;2022-10-14T11:13:25;18.92;;;11.97;;
40691;SDS011;26377;53.344;14.886;2022-10-14T11:19:09;19.92;;;9.55;;
40691;SDS011;26377;53.344;14.886;2022-10-14T11:24:53;16.30;;;9.03;;
40691;SDS011;26377;53.344;14.886;2022-10-14T11:27:30;14.55;;;9.28;;
40691;SDS011;26377;53.344;14.886;2022-10-14T11:35:49;16.37;;;9.28;;
40691;SDS011;26377;53.344;14.886;2022-10-14T11:44:34;17.17;;;9.50;;
40691;SDS011;26377;53.344;14.886;2022-10-14T11:47:13;19.80;;;9.90;;
40691;SDS011;26377;53.344;14.886;2022-10-14T11:49:47;14.70;;;8.95;;
40691;SDS011;26377;53.344;14.886;2022-10-14T11:52:25;14.58;;;8.35;;
40691;SDS011;26377;53.344;14.886;2022-10-14T11:57:53;17.35;;;9.48;;
40691;SDS011;26377;53.344;14.886;2022-10-14T12:06:34;15.68;;;8.95;;
40691;SDS011;26377;53.344;14.886;2022-10-14T12:12:13;14.33;;;9.03;;
40691;SDS011;26377;53.344;14.886;2022-10-14T12:14:50;13.10;;;8.53;;
40691;SDS011;26377;53.344;14.886;2022-10-14T12:23:45;17.90;;;8.08;;
40691;SDS011;26377;53.344;14.886;2022-10-14T12:28:58;18.00;;;7.20;;
40691;SDS011;26377;53.344;14.886;2022-10-14T12:31:37;10.43;;;7.00;;
40691;SDS011;26377;53.344;14.886;2022-10-14T12:36:46;13.78;;;7.58;;
40691;SDS011;26377;53.344;14.886;2022-10-14T12:44:46;15.25;;;8.00;;
40691;SDS011;26377;53.344;14.886;2022-10-14T12:50:05;12.37;;;7.27;;
40691;SDS011;26377;53.344;14.886;2022-10-14T12:52:45;12.73;;;7.30;;
40691;SDS011;26377;53.344;14.886;2022-10-14T12:55:18;13.88;;;8.08;;
40691;SDS011;26377;53.344;14.886;2022-10-14T12:57:53;15.93;;;8.08;;
40691;SDS011;26377;53.344;14.886;2022-10-14T13:03:01;13.05;;;8.85;;
40691;SDS011;26377;53.344;14.886;2022-10-14T13:18:59;15.58;;;8.08;;
40691;SDS011;26377;53.344;14.886;2022-10-14T13:24:26;16.40;;;9.68;;
40691;SDS011;26377;53.344;14.886;2022-10-14T13:32:44;19.15;;;9.20;;
40691;SDS011;26377;53.344;14.886;2022-10-14T13:38:06;15.60;;;8.15;;
40691;SDS011;26377;53.344;14.886;2022-10-14T13:40:48;17.65;;;9.25;;
40691;SDS011;26377;53.344;14.886;2022-10-14T13:43:26;12.37;;;8.63;;
40691;SDS011;26377;53.344;14.886;2022-10-14T13:46:12;14.78;;;8.68;;
40691;SDS011;26377;53.344;14.886;2022-10-14T13:49:07;18.95;;;9.35;;
40691;SDS011;26377;53.344;14.886;2022-10-14T13:54:24;20.55;;;10.43;;
40691;SDS011;26377;53.344;14.886;2022-10-14T13:57:06;21.37;;;11.18;;
40691;SDS011;26377;53.344;14.886;2022-10-14T13:59:42;16.82;;;10.00;;
40691;SDS011;26377;53.344;14.886;2022-10-14T14:02:19;16.60;;;9.60;;
40691;SDS011;26377;53.344;14.886;2022-10-14T14:04:51;19.02;;;10.88;;
40691;SDS011;26377;53.344;14.886;2022-10-14T14:07:24;21.73;;;10.08;;
40691;SDS011;26377;53.344;14.886;2022-10-14T14:09:59;14.00;;;8.70;;
40691;SDS011;26377;53.344;14.886;2022-10-14T14:12:29;19.02;;;10.00;;
40691;SDS011;26377;53.344;14.886;2022-10-14T14:14:57;16.37;;;10.30;;
40691;SDS011;26377;53.344;14.886;2022-10-14T14:17:25;14.53;;;9.88;;
40691;SDS011;26377;53.344;14.886;2022-10-14T14:19:57;14.73;;;9.30;;
40691;SDS011;26377;53.344;14.886;2022-10-14T14:22:29;18.92;;;9.65;;
40691;SDS011;26377;53.344;14.886;2022-10-14T14:27:49;17.82;;;10.43;;
40691;SDS011;26377;53.344;14.886;2022-10-14T14:30:21;20.43;;;9.28;;
40691;SDS011;26377;53.344;14.886;2022-10-14T14:33:06;14.60;;;9.38;;
40691;SDS011;26377;53.344;14.886;2022-10-14T14:35:51;15.60;;;9.25;;
40691;SDS011;26377;53.344;14.886;2022-10-14T14:38:28;17.42;;;9.53;;
40691;SDS011;26377;53.344;14.886;2022-10-14T14:43:42;21.07;;;9.00;;
40691;SDS011;26377;53.344;14.886;2022-10-14T14:46:16;16.70;;;10.03;;
40691;SDS011;26377;53.344;14.886;2022-10-14T14:49:01;15.53;;;9.18;;
40691;SDS011;26377;53.344;14.886;2022-10-14T14:51:36;17.17;;;9.38;;
40691;SDS011;26377;53.344;14.886;2022-10-14T14:54:04;13.43;;;9.00;;
40691;SDS011;26377;53.344;14.886;2022-10-14T14:56:42;16.67;;;8.80;;
40691;SDS011;26377;53.344;14.886;2022-10-14T14:59:08;19.17;;;8.48;;
40691;SDS011;26377;53.344;14.886;2022-10-14T15:01:48;14.23;;;9.38;;
40691;SDS011;26377;53.344;14.886;2022-10-14T15:04:20;15.63;;;8.50;;
40691;SDS011;26377;53.344;14.886;2022-10-14T15:07:05;13.45;;;8.45;;
40691;SDS011;26377;53.344;14.886;2022-10-14T15:09:54;17.20;;;9.88;;
40691;SDS011;26377;53.344;14.886;2022-10-14T15:12:31;15.60;;;8.83;;
40691;SDS011;26377;53.344;14.886;2022-10-14T15:20:47;14.93;;;8.95;;
40691;SDS011;26377;53.344;14.886;2022-10-14T15:23:36;17.55;;;9.53;;
40691;SDS011;26377;53.344;14.886;2022-10-14T15:29:18;16.05;;;9.93;;
40691;SDS011;26377;53.344;14.886;2022-10-14T15:34:39;22.50;;;13.20;;
40691;SDS011;26377;53.344;14.886;2022-10-14T15:37:10;24.47;;;13.20;;
40691;SDS011;26377;53.344;14.886;2022-10-14T15:39:42;24.45;;;15.63;;
40691;SDS011;26377;53.344;14.886;2022-10-14T15:42:10;29.85;;;15.98;;
40691;SDS011;26377;53.344;14.886;2022-10-14T15:44:38;28.90;;;16.15;;
40691;SDS011;26377;53.344;14.886;2022-10-14T15:47:07;34.25;;;19.73;;
40691;SDS011;26377;53.344;14.886;2022-10-14T15:49:47;43.92;;;22.17;;
40691;SDS011;26377;53.344;14.886;2022-10-14T15:52:15;39.73;;;23.73;;
40691;SDS011;26377;53.344;14.886;2022-10-14T15:54:42;40.70;;;24.43;;
40691;SDS011;26377;53.344;14.886;2022-10-14T15:57:12;36.00;;;22.85;;
40691;SDS011;26377;53.344;14.886;2022-10-14T15:59:40;39.70;;;20.40;;
40691;SDS011;26377;53.344;14.886;2022-10-14T16:02:29;33.80;;;16.57;;
40691;SDS011;26377;53.344;14.886;2022-10-14T16:04:52;24.10;;;12.30;;
40691;SDS011;26377;53.344;14.886;2022-10-14T16:07:19;22.58;;;12.03;;
40691;SDS011;26377;53.344;14.886;2022-10-14T16:09:47;22.80;;;12.00;;
40691;SDS011;26377;53.344;14.886;2022-10-14T16:12:14;16.57;;;10.50;;
40691;SDS011;26377;53.344;14.886;2022-10-14T16:14:41;16.73;;;10.03;;
40691;SDS011;26377;53.344;14.886;2022-10-14T16:17:16;17.57;;;9.23;;
40691;SDS011;26377;53.344;14.886;2022-10-14T16:19:45;14.20;;;8.88;;
40691;SDS011;26377;53.344;14.886;2022-10-14T16:22:13;18.77;;;9.70;;
40691;SDS011;26377;53.344;14.886;2022-10-14T16:24:40;16.52;;;9.33;;
40691;SDS011;26377;53.344;14.886;2022-10-14T16:27:07;17.12;;;8.25;;
40691;SDS011;26377;53.344;14.886;2022-10-14T16:29:37;12.45;;;9.30;;
40691;SDS011;26377;53.344;14.886;2022-10-14T16:32:04;12.95;;;8.40;;
40691;SDS011;26377;53.344;14.886;2022-10-14T16:34:33;15.70;;;8.78;;
40691;SDS011;26377;53.344;14.886;2022-10-14T16:37:01;13.62;;;9.60;;
40691;SDS011;26377;53.344;14.886;2022-10-14T16:39:29;14.13;;;9.45;;
40691;SDS011;26377;53.344;14.886;2022-10-14T16:41:57;16.10;;;8.75;;
40691;SDS011;26377;53.344;14.886;2022-10-14T16:44:24;17.23;;;9.10;;
40691;SDS011;26377;53.344;14.886;2022-10-14T16:46:52;20.55;;;9.43;;
40691;SDS011;26377;53.344;14.886;2022-10-14T16:49:42;19.05;;;9.33;;
40691;SDS011;26377;53.344;14.886;2022-10-14T16:52:14;16.00;;;9.63;;
40691;SDS011;26377;53.344;14.886;2022-10-14T16:54:45;16.35;;;10.65;;
40691;SDS011;26377;53.344;14.886;2022-10-14T16:57:14;13.85;;;10.05;;
40691;SDS011;26377;53.344;14.886;2022-10-14T16:59:42;18.65;;;11.22;;
40691;SDS011;26377;53.344;14.886;2022-10-14T17:02:13;17.12;;;10.85;;
40691;SDS011;26377;53.344;14.886;2022-10-14T17:04:45;18.07;;;11.38;;
40691;SDS011;26377;53.344;14.886;2022-10-14T17:07:14;15.48;;;10.45;;
40691;SDS011;26377;53.344;14.886;2022-10-14T17:09:43;18.95;;;11.85;;
40691;SDS011;26377;53.344;14.886;2022-10-14T17:12:11;22.07;;;12.98;;
40691;SDS011;26377;53.344;14.886;2022-10-14T17:14:38;19.35;;;11.78;;
40691;SDS011;26377;53.344;14.886;2022-10-14T17:17:07;19.50;;;13.08;;
40691;SDS011;26377;53.344;14.886;2022-10-14T17:19:35;25.72;;;13.62;;
40691;SDS011;26377;53.344;14.886;2022-10-14T17:22:03;18.40;;;13.35;;
40691;SDS011;26377;53.344;14.886;2022-10-14T17:24:30;22.32;;;14.47;;
40691;SDS011;26377;53.344;14.886;2022-10-14T17:26:57;20.92;;;14.87;;
40691;SDS011;26377;53.344;14.886;2022-10-14T17:29:30;26.35;;;17.10;;
40691;SDS011;26377;53.344;14.886;2022-10-14T17:31:58;26.35;;;18.02;;
40691;SDS011;26377;53.344;14.886;2022-10-14T17:34:27;30.77;;;19.65;;
40691;SDS011;26377;53.344;14.886;2022-10-14T17:36:56;30.95;;;21.37;;
40691;SDS011;26377;53.344;14.886;2022-10-14T17:39:32;41.48;;;25.35;;
40691;SDS011;26377;53.344;14.886;2022-10-14T17:42:01;40.67;;;25.45;;
40691;SDS011;26377;53.344;14.886;2022-10-14T17:44:29;43.83;;;25.92;;
40691;SDS011;26377;53.344;14.886;2022-10-14T17:46:57;43.17;;;28.00;;